createdAt,value
2023-07-23T00:00:00.582Z,973.2
2023-07-23T00:01:00.585Z,973.2
2023-07-23T00:02:00.555Z,973.2
2023-07-23T00:03:00.768Z,973.2
2023-07-23T00:04:00.592Z,973.2
2023-07-23T00:05:00.609Z,973.2
2023-07-23T00:06:00.536Z,973.2
2023-07-23T00:07:00.549Z,973.4
2023-07-23T00:08:00.543Z,973.4
2023-07-23T00:09:00.543Z,973.2
2023-07-23T00:10:00.562Z,973.6
2023-07-23T00:11:00.539Z,973.2
2023-07-23T00:12:00.545Z,973.2
2023-07-23T00:13:00.557Z,973.2
2023-07-23T00:14:00.560Z,973.2
2023-07-23T00:15:00.547Z,973.2
2023-07-23T00:16:00.623Z,973.2
2023-07-23T00:17:00.571Z,973.2
2023-07-23T00:18:00.660Z,973.2
2023-07-23T00:19:00.576Z,973.2
2023-07-23T00:20:00.564Z,972.7
2023-07-23T00:21:00.578Z,973.2
2023-07-23T00:22:00.558Z,973.4
2023-07-23T00:23:00.558Z,973.2
2023-07-23T00:24:00.557Z,973.2
2023-07-23T00:25:00.563Z,973.2
2023-07-23T00:26:00.559Z,973.2
2023-07-23T00:27:00.558Z,973.4
2023-07-23T00:28:00.566Z,973.4
2023-07-23T00:29:00.576Z,973.2
2023-07-23T00:30:00.590Z,973.4
2023-07-23T00:31:00.576Z,973.2
2023-07-23T00:32:00.605Z,973.6
2023-07-23T00:33:00.599Z,972.7
2023-07-23T00:34:00.568Z,973.2
2023-07-23T00:35:00.568Z,973.2
2023-07-23T00:36:00.576Z,973.2
2023-07-23T00:37:00.582Z,973.2
2023-07-23T00:38:00.592Z,973.4
2023-07-23T00:39:00.578Z,973.2
2023-07-23T00:40:00.606Z,973.2
2023-07-23T00:41:00.581Z,973.2
2023-07-23T00:42:00.592Z,973.4
2023-07-23T00:43:00.588Z,973.4
2023-07-23T00:44:00.575Z,973.2
2023-07-23T00:45:00.577Z,973.2
2023-07-23T00:46:00.603Z,973.2
2023-07-23T00:47:00.578Z,973.2
2023-07-23T00:48:00.639Z,973.4
2023-07-23T00:49:00.580Z,973.6
2023-07-23T00:50:00.617Z,973.4
2023-07-23T00:51:00.604Z,973.8
2023-07-23T00:52:00.594Z,973.6
2023-07-23T00:53:00.621Z,973.6
2023-07-23T00:54:00.591Z,973.6
2023-07-23T00:55:00.614Z,973.4
2023-07-23T00:56:00.633Z,973.6
2023-07-23T00:57:00.598Z,973.4
2023-07-23T00:58:00.587Z,973.2
2023-07-23T00:59:00.595Z,973.4
2023-07-23T01:00:00.663Z,973.4
2023-07-23T01:01:00.665Z,973.2
2023-07-23T01:02:00.607Z,973
2023-07-23T01:03:00.656Z,973.2
2023-07-23T01:04:00.692Z,973
2023-07-23T01:05:00.606Z,973.2
2023-07-23T01:06:00.619Z,973.4
2023-07-23T01:07:00.619Z,973.4
2023-07-23T01:08:00.596Z,973.2
2023-07-23T01:09:00.599Z,972.7
2023-07-23T01:10:00.641Z,972.7
2023-07-23T01:11:00.606Z,973.2
2023-07-23T01:12:00.654Z,972.7
2023-07-23T01:13:00.613Z,973.2
2023-07-23T01:14:00.605Z,973.2
2023-07-23T01:15:00.632Z,972.7
2023-07-23T01:16:00.644Z,973.2
2023-07-23T01:17:00.611Z,972.7
2023-07-23T01:18:00.649Z,973.2
2023-07-23T01:19:00.698Z,972.7
2023-07-23T01:20:00.649Z,973.2
2023-07-23T01:21:00.658Z,973.2
2023-07-23T01:22:00.616Z,973.2
2023-07-23T01:23:00.628Z,973.2
2023-07-23T01:24:00.633Z,973.2
2023-07-23T01:25:00.623Z,973.2
2023-07-23T01:26:00.622Z,973.6
2023-07-23T01:27:00.626Z,973.2
2023-07-23T01:28:00.644Z,973.2
2023-07-23T01:29:00.647Z,973.2
2023-07-23T01:30:00.793Z,973.6
2023-07-23T01:31:00.669Z,973.6
2023-07-23T01:32:00.651Z,973.6
2023-07-23T01:33:00.635Z,973.6
2023-07-23T01:34:00.641Z,973.6
2023-07-23T01:35:00.629Z,973.8
2023-07-23T01:36:00.685Z,973.6
2023-07-23T01:37:00.635Z,973.6
2023-07-23T01:38:00.644Z,973.8
2023-07-23T01:39:00.691Z,973.6
2023-07-23T01:40:00.644Z,973.8
2023-07-23T01:41:00.650Z,974
2023-07-23T01:42:00.665Z,973.6
2023-07-23T01:43:00.665Z,974
2023-07-23T01:44:00.652Z,973.8
2023-07-23T01:45:00.662Z,974
2023-07-23T01:46:00.686Z,973.8
2023-07-23T01:47:00.685Z,974
2023-07-23T01:48:00.669Z,973.8
2023-07-23T01:49:00.683Z,973.6
2023-07-23T01:50:00.666Z,973.6
2023-07-23T01:51:00.660Z,973.6
2023-07-23T01:52:00.681Z,973.8
2023-07-23T01:53:00.652Z,973.8
2023-07-23T01:54:00.660Z,974
2023-07-23T01:55:00.653Z,974
2023-07-23T01:56:00.653Z,974
2023-07-23T01:57:00.650Z,974.5
2023-07-23T01:58:00.659Z,974.5
2023-07-23T01:59:00.667Z,974.5
2023-07-23T02:00:00.670Z,974.5
2023-07-23T02:01:01.043Z,974.5
2023-07-23T02:02:01.012Z,974.7
2023-07-23T02:03:01.112Z,974.5
2023-07-23T02:04:00.998Z,974.7
2023-07-23T02:05:00.980Z,974.9
2023-07-23T02:06:01.030Z,974.9
2023-07-23T02:07:00.986Z,974.9
2023-07-23T02:08:00.998Z,975.1
2023-07-23T02:09:01.022Z,974.9
2023-07-23T02:10:01.051Z,974.9
2023-07-23T02:11:01.006Z,974.9
2023-07-23T02:12:01.010Z,974.7
2023-07-23T02:13:00.993Z,974.9
2023-07-23T02:14:01.009Z,975.1
2023-07-23T02:15:00.366Z,975.4
2023-07-23T02:16:00.369Z,975.4
2023-07-23T02:17:00.486Z,975.6
2023-07-23T02:18:00.408Z,975.4
2023-07-23T02:19:00.367Z,975.4
2023-07-23T02:20:00.373Z,975.1
2023-07-23T02:21:00.378Z,974.9
2023-07-23T02:22:00.377Z,975.1
2023-07-23T02:23:00.371Z,975.4
2023-07-23T02:24:00.376Z,975.4
2023-07-23T02:25:00.410Z,975.6
2023-07-23T02:26:00.428Z,975.6
2023-07-23T02:27:00.379Z,975.8
2023-07-23T02:28:00.400Z,975.8
2023-07-23T02:29:00.380Z,976
2023-07-23T02:30:00.390Z,975.8
2023-07-23T02:31:00.456Z,975.8
2023-07-23T02:32:00.385Z,976
2023-07-23T02:33:00.461Z,976
2023-07-23T02:34:00.382Z,976
2023-07-23T02:35:00.408Z,976
2023-07-23T02:36:00.406Z,976.2
2023-07-23T02:37:00.395Z,976.2
2023-07-23T02:38:00.390Z,976.2
2023-07-23T02:39:00.393Z,976.2
2023-07-23T02:40:00.429Z,976.4
2023-07-23T02:41:00.425Z,976.4
2023-07-23T02:42:00.406Z,976.7
2023-07-23T02:43:00.393Z,976.7
2023-07-23T02:44:00.394Z,976.7
2023-07-23T02:45:00.398Z,976.7
2023-07-23T02:46:00.442Z,976.7
2023-07-23T02:47:00.401Z,976.9
2023-07-23T02:48:00.455Z,976.7
2023-07-23T02:49:00.405Z,976.7
2023-07-23T02:50:00.421Z,976.4
2023-07-23T02:51:00.402Z,976.7
2023-07-23T02:52:00.407Z,976.7
2023-07-23T02:53:00.428Z,976.7
2023-07-23T02:54:00.418Z,976.7
2023-07-23T02:55:00.426Z,976.7
2023-07-23T02:56:00.412Z,976.7
2023-07-23T02:57:00.417Z,976.7
2023-07-23T02:58:00.410Z,976.7
2023-07-23T02:59:00.428Z,976.4
2023-07-23T03:00:00.440Z,976.7
2023-07-23T03:01:00.442Z,976.7
2023-07-23T03:02:00.482Z,976.7
2023-07-23T03:03:00.532Z,976.7
2023-07-23T03:04:00.456Z,976.9
2023-07-23T03:05:00.445Z,976.7
2023-07-23T03:06:00.444Z,976.9
2023-07-23T03:07:00.418Z,977.1
2023-07-23T03:08:00.416Z,977.1
2023-07-23T03:09:00.473Z,977.1
2023-07-23T03:10:00.439Z,977.1
2023-07-23T03:11:00.436Z,977.1
2023-07-23T03:12:00.424Z,977.1
2023-07-23T03:13:00.434Z,977.3
2023-07-23T03:14:00.429Z,977.5
2023-07-23T03:15:00.460Z,977.3
2023-07-23T03:16:00.485Z,977.5
2023-07-23T03:17:00.432Z,977.5
2023-07-23T03:18:00.479Z,977.5
2023-07-23T03:19:00.428Z,977.5
2023-07-23T03:20:00.442Z,977.5
2023-07-23T03:21:00.441Z,977.7
2023-07-23T03:22:00.441Z,977.5
2023-07-23T03:23:00.439Z,977.5
2023-07-23T03:24:00.472Z,977.5
2023-07-23T03:25:00.473Z,977.3
2023-07-23T03:26:00.468Z,977.5
2023-07-23T03:27:00.437Z,977.5
2023-07-23T03:28:00.463Z,977.3
2023-07-23T03:29:00.448Z,977.1
2023-07-23T03:30:00.468Z,977.3
2023-07-23T03:31:00.447Z,977.5
2023-07-23T03:32:00.671Z,977.1
2023-07-23T03:33:00.482Z,977.1
2023-07-23T03:34:00.456Z,977.3
2023-07-23T03:35:00.452Z,977.1
2023-07-23T03:36:00.469Z,977.1
2023-07-23T03:37:00.465Z,977.3
2023-07-23T03:38:00.461Z,977.3
2023-07-23T03:39:00.455Z,977.3
2023-07-23T03:40:00.463Z,977.3
2023-07-23T03:41:00.462Z,977.5
2023-07-23T03:42:00.461Z,977.1
2023-07-23T03:43:00.474Z,977.5
2023-07-23T03:44:00.469Z,977.3
2023-07-23T03:45:00.492Z,977.3
2023-07-23T03:46:00.485Z,977.3
2023-07-23T03:47:00.462Z,977.5
2023-07-23T03:48:00.481Z,977.5
2023-07-23T03:49:00.475Z,977.5
2023-07-23T03:50:00.512Z,977.5
2023-07-23T03:51:00.475Z,977.5
2023-07-23T03:52:00.495Z,977.5
2023-07-23T03:53:00.473Z,977.7
2023-07-23T03:54:00.487Z,977.5
2023-07-23T03:55:00.486Z,977.7
2023-07-23T03:56:00.474Z,977.7
2023-07-23T03:57:00.473Z,978
2023-07-23T03:58:00.488Z,978
2023-07-23T03:59:00.479Z,978
2023-07-23T04:00:00.503Z,978
2023-07-23T04:01:00.528Z,978
2023-07-23T04:02:00.480Z,978
2023-07-23T04:03:00.574Z,978
2023-07-23T04:04:00.514Z,978
2023-07-23T04:05:00.482Z,977.7
2023-07-23T04:06:00.502Z,977.7
2023-07-23T04:07:00.486Z,978
2023-07-23T04:08:00.497Z,978
2023-07-23T04:09:00.486Z,978
2023-07-23T04:10:00.510Z,978
2023-07-23T04:11:00.506Z,978
2023-07-23T04:12:00.524Z,978
2023-07-23T04:13:00.487Z,978
2023-07-23T04:14:00.501Z,978
2023-07-23T04:15:00.517Z,978
2023-07-23T04:16:00.823Z,978
2023-07-23T04:17:00.502Z,978.2
2023-07-23T04:18:00.521Z,978
2023-07-23T04:19:00.490Z,978.4
2023-07-23T04:20:00.544Z,978.2
2023-07-23T04:21:00.706Z,978.4
2023-07-23T04:22:00.508Z,978.4
2023-07-23T04:23:00.497Z,978.4
2023-07-23T04:24:00.501Z,978
2023-07-23T04:25:00.506Z,978.4
2023-07-23T04:26:00.614Z,978
2023-07-23T04:27:00.501Z,978.4
2023-07-23T04:28:00.501Z,978.4
2023-07-23T04:29:00.519Z,978.8
2023-07-23T04:30:00.551Z,978.4
2023-07-23T04:31:00.722Z,978.4
2023-07-23T04:32:00.522Z,978.6
2023-07-23T04:33:00.545Z,978.4
2023-07-23T04:34:00.509Z,978.8
2023-07-23T04:35:00.520Z,978.6
2023-07-23T04:36:00.734Z,978.8
2023-07-23T04:37:00.520Z,978.6
2023-07-23T04:38:00.515Z,978.8
2023-07-23T04:39:00.513Z,978.4
2023-07-23T04:40:00.531Z,978.4
2023-07-23T04:41:00.728Z,978.4
2023-07-23T04:42:00.522Z,978.4
2023-07-23T04:43:00.522Z,978.4
2023-07-23T04:44:00.552Z,978.2
2023-07-23T04:45:00.536Z,978.2
2023-07-23T04:46:00.787Z,978.6
2023-07-23T04:47:00.538Z,978.4
2023-07-23T04:48:00.587Z,978.4
2023-07-23T04:49:00.539Z,978.4
2023-07-23T04:50:00.596Z,978.6
2023-07-23T04:51:00.616Z,978.6
2023-07-23T04:52:00.544Z,978.8
2023-07-23T04:53:00.533Z,978.8
2023-07-23T04:54:00.533Z,978.4
2023-07-23T04:55:00.539Z,978.6
2023-07-23T04:56:00.677Z,977.7
2023-07-23T04:57:00.542Z,978.8
2023-07-23T04:58:00.568Z,978.4
2023-07-23T04:59:00.548Z,978.8
2023-07-23T05:00:00.648Z,978.8
2023-07-23T05:01:00.904Z,978.8
2023-07-23T05:02:00.555Z,978.8
2023-07-23T05:03:00.601Z,976.2
2023-07-23T05:04:00.610Z,978.2
2023-07-23T05:05:00.551Z,978
2023-07-23T05:06:00.817Z,978.6
2023-07-23T05:07:00.551Z,978
2023-07-23T05:08:02.140Z,978
2023-07-23T05:09:00.548Z,976.9
2023-07-23T05:10:00.630Z,977.1
2023-07-23T05:11:00.821Z,978
2023-07-23T05:12:00.575Z,977.5
2023-07-23T05:13:00.567Z,976.9
2023-07-23T05:14:00.599Z,975.4
2023-07-23T05:15:00.567Z,977.1
2023-07-23T05:16:00.766Z,978
2023-07-23T05:17:00.567Z,977.1
2023-07-23T05:18:00.564Z,977.1
2023-07-23T05:19:00.564Z,977.3
2023-07-23T05:20:00.653Z,975.8
2023-07-23T05:21:00.778Z,976.9
2023-07-23T05:22:00.575Z,976.4
2023-07-23T05:23:00.563Z,976.7
2023-07-23T05:24:00.578Z,975.8
2023-07-23T05:25:00.579Z,976
2023-07-23T05:26:00.750Z,973.8
2023-07-23T05:27:00.564Z,974.5
2023-07-23T05:28:00.565Z,975.1
2023-07-23T05:29:00.573Z,976.7
2023-07-23T05:30:00.721Z,975.6
2023-07-23T05:31:00.979Z,974.9
2023-07-23T05:32:00.582Z,975.4
2023-07-23T05:33:00.640Z,975.8
2023-07-23T05:34:00.600Z,975.6
2023-07-23T05:35:00.609Z,975.4
2023-07-23T05:36:00.853Z,975.4
2023-07-23T05:37:00.603Z,973.2
2023-07-23T05:38:00.607Z,975.4
2023-07-23T05:39:00.605Z,974.5
2023-07-23T05:40:00.612Z,973.2
2023-07-23T05:41:00.710Z,974.7
2023-07-23T05:42:00.586Z,975.4
2023-07-23T05:43:00.682Z,974
2023-07-23T05:44:00.594Z,974.5
2023-07-23T05:45:00.605Z,974.7
2023-07-23T05:46:00.950Z,974
2023-07-23T05:47:00.675Z,973
2023-07-23T05:48:00.708Z,973.8
2023-07-23T05:49:00.618Z,974.3
2023-07-23T05:50:00.740Z,972.7
2023-07-23T05:51:00.937Z,972.7
2023-07-23T05:52:00.597Z,974.3
2023-07-23T05:53:00.596Z,973
2023-07-23T05:54:00.622Z,973.6
2023-07-23T05:55:00.622Z,971.9
2023-07-23T05:56:01.310Z,971.4
2023-07-23T05:57:00.601Z,973.2
2023-07-23T05:58:00.606Z,972.3
2023-07-23T05:59:00.617Z,972.3
2023-07-23T06:00:00.713Z,972.5
2023-07-23T06:01:00.855Z,971.9
2023-07-23T06:02:00.612Z,971.7
2023-07-23T06:03:00.692Z,971.4
2023-07-23T06:04:00.631Z,971.2
2023-07-23T06:05:00.683Z,971.7
2023-07-23T06:06:00.757Z,969.3
2023-07-23T06:07:00.685Z,971
2023-07-23T06:08:00.645Z,971.7
2023-07-23T06:09:00.648Z,970.8
2023-07-23T06:10:00.706Z,969.7
2023-07-23T06:11:00.837Z,968.8
2023-07-23T06:12:00.668Z,969.3
2023-07-23T06:13:00.702Z,968.8
2023-07-23T06:14:00.646Z,969.7
2023-07-23T06:15:00.665Z,968
2023-07-23T06:16:00.823Z,968.6
2023-07-23T06:17:00.658Z,968
2023-07-23T06:18:00.675Z,967.3
2023-07-23T06:19:00.631Z,967.5
2023-07-23T06:20:00.632Z,967.5
2023-07-23T06:21:00.781Z,966.2
2023-07-23T06:22:00.640Z,967.1
2023-07-23T06:23:00.627Z,966.9
2023-07-23T06:24:00.630Z,966.4
2023-07-23T06:25:00.726Z,966.7
2023-07-23T06:26:00.753Z,966.4
2023-07-23T06:27:00.635Z,966.2
2023-07-23T06:28:00.638Z,966.2
2023-07-23T06:29:00.703Z,966.2
2023-07-23T06:30:00.690Z,966.2
2023-07-23T06:31:00.971Z,965.4
2023-07-23T06:32:00.634Z,964.9
2023-07-23T06:33:00.666Z,965.4
2023-07-23T06:34:00.648Z,965.1
2023-07-23T06:35:02.981Z,964.9
2023-07-23T06:36:00.637Z,964.7
2023-07-23T06:37:00.641Z,964.5
2023-07-23T06:38:00.637Z,964.5
2023-07-23T06:39:00.641Z,963.8
2023-07-23T06:40:00.675Z,964
2023-07-23T06:41:00.643Z,964
2023-07-23T06:42:00.647Z,964.3
2023-07-23T06:43:00.650Z,964.5
2023-07-23T06:44:00.653Z,964
2023-07-23T06:45:00.662Z,964.5
2023-07-23T06:46:00.712Z,964
2023-07-23T06:47:00.670Z,963.2
2023-07-23T06:48:00.719Z,964.3
2023-07-23T06:49:00.658Z,963.2
2023-07-23T06:50:00.675Z,963.2
2023-07-23T06:51:00.658Z,963.2
2023-07-23T06:52:00.656Z,964.3
2023-07-23T06:53:02.291Z,963.4
2023-07-23T06:54:00.670Z,963.6
2023-07-23T06:55:00.658Z,963.6
2023-07-23T06:56:00.658Z,964
2023-07-23T06:57:00.721Z,964
2023-07-23T06:58:00.668Z,963.2
2023-07-23T06:59:00.660Z,963.4
2023-07-23T07:00:00.743Z,964.5
2023-07-23T07:01:00.675Z,963.4
2023-07-23T07:02:00.701Z,964
2023-07-23T07:03:00.777Z,963.6
2023-07-23T07:04:00.666Z,963.6
2023-07-23T07:05:00.683Z,963.6
2023-07-23T07:06:00.665Z,964.3
2023-07-23T07:07:00.668Z,963.4
2023-07-23T07:08:00.690Z,963.6
2023-07-23T07:09:00.704Z,964.3
2023-07-23T07:10:00.691Z,964.3
2023-07-23T07:11:00.682Z,964
2023-07-23T07:12:00.713Z,963.6
2023-07-23T07:13:00.694Z,964.3
2023-07-23T07:14:00.680Z,963.8
2023-07-23T07:15:00.684Z,963.8
2023-07-23T07:16:00.699Z,963.6
2023-07-23T07:17:00.679Z,964
2023-07-23T07:18:00.704Z,963.6
2023-07-23T07:19:00.697Z,963.2
2023-07-23T07:20:00.709Z,963.2
2023-07-23T07:21:00.686Z,963.2
2023-07-23T07:22:00.681Z,963.2
2023-07-23T07:23:00.681Z,963
2023-07-23T07:24:00.683Z,962.7
2023-07-23T07:25:00.692Z,963.2
2023-07-23T07:26:00.693Z,963.2
2023-07-23T07:27:00.686Z,962.7
2023-07-23T07:28:00.693Z,962.3
2023-07-23T07:29:00.693Z,962.5
2023-07-23T07:30:01.413Z,962.3
2023-07-23T07:31:00.718Z,962.7
2023-07-23T07:32:00.797Z,962.5
2023-07-23T07:33:00.716Z,961.9
2023-07-23T07:34:00.719Z,961.9
2023-07-23T07:35:00.696Z,961.7
2023-07-23T07:36:00.699Z,962.3
2023-07-23T07:37:00.706Z,962.5
2023-07-23T07:38:00.704Z,962.5
2023-07-23T07:39:01.059Z,962.3
2023-07-23T07:40:00.714Z,961.2
2023-07-23T07:41:00.699Z,961.4
2023-07-23T07:42:00.704Z,961.9
2023-07-23T07:43:00.740Z,961.9
2023-07-23T07:44:00.713Z,962.3
2023-07-23T07:45:00.724Z,962.3
2023-07-23T07:46:00.967Z,961.9
2023-07-23T07:47:00.714Z,961.9
2023-07-23T07:48:00.767Z,961.9
2023-07-23T07:49:00.741Z,960.6
2023-07-23T07:50:00.711Z,960.6
2023-07-23T07:51:00.712Z,961
2023-07-23T07:52:00.712Z,961
2023-07-23T07:53:00.734Z,961.2
2023-07-23T07:54:00.716Z,960.6
2023-07-23T07:55:00.723Z,960.1
2023-07-23T07:56:00.725Z,959.7
2023-07-23T07:57:00.716Z,960.1
2023-07-23T07:58:00.730Z,960.4
2023-07-23T07:59:01.298Z,959.7
2023-07-23T08:00:00.729Z,960.1
2023-07-23T08:01:00.726Z,959.5
2023-07-23T08:02:00.721Z,960.1
2023-07-23T08:03:00.883Z,960.6
2023-07-23T08:04:00.966Z,960.6
2023-07-23T08:05:00.887Z,959.7
2023-07-23T08:06:00.781Z,958.8
2023-07-23T08:07:00.738Z,959.9
2023-07-23T08:08:00.747Z,960.1
2023-07-23T08:09:00.763Z,959.7
2023-07-23T08:10:00.733Z,958.6
2023-07-23T08:11:00.748Z,959.3
2023-07-23T08:12:00.777Z,959.3
2023-07-23T08:13:00.743Z,959.3
2023-07-23T08:14:00.744Z,958.4
2023-07-23T08:15:00.768Z,958.4
2023-07-23T08:16:00.750Z,957.7
2023-07-23T08:17:00.658Z,958.2
2023-07-23T08:18:00.627Z,958.4
2023-07-23T08:19:00.641Z,959.3
2023-07-23T08:20:00.590Z,957.5
2023-07-23T08:21:00.540Z,957.3
2023-07-23T08:22:00.509Z,956.4
2023-07-23T08:23:00.475Z,957.5
2023-07-23T08:24:00.450Z,957.1
2023-07-23T08:25:00.436Z,957.1
2023-07-23T08:26:00.412Z,957.5
2023-07-23T08:27:00.364Z,957.1
2023-07-23T08:28:00.342Z,957.3
2023-07-23T08:29:00.335Z,956.7
2023-07-23T08:30:00.315Z,957.5
2023-07-23T08:31:00.362Z,957.3
2023-07-23T08:32:00.320Z,956.7
2023-07-23T08:33:00.373Z,954.9
2023-07-23T08:34:00.317Z,955.4
2023-07-23T08:35:00.336Z,955.8
2023-07-23T08:36:00.318Z,956.4
2023-07-23T08:37:00.331Z,955.8
2023-07-23T08:38:00.333Z,954.9
2023-07-23T08:39:00.321Z,955.8
2023-07-23T08:40:00.325Z,954.9
2023-07-23T08:41:00.328Z,954.5
2023-07-23T08:42:00.332Z,954.5
2023-07-23T08:43:00.337Z,954
2023-07-23T08:44:00.357Z,954
2023-07-23T08:45:00.342Z,952.3
2023-07-23T08:46:00.342Z,952.3
2023-07-23T08:47:00.342Z,952.7
2023-07-23T08:48:00.358Z,954.5
2023-07-23T08:49:00.345Z,954.7
2023-07-23T08:50:02.170Z,953.6
2023-07-23T08:51:00.336Z,953.8
2023-07-23T08:52:00.337Z,954.9
2023-07-23T08:53:00.342Z,954.3
2023-07-23T08:54:00.345Z,954.5
2023-07-23T08:55:00.341Z,954.5
2023-07-23T08:56:00.359Z,954
2023-07-23T08:57:00.342Z,952.7
2023-07-23T08:58:00.367Z,952.5
2023-07-23T08:59:00.354Z,951.7
2023-07-23T09:00:00.355Z,951.9
2023-07-23T09:01:00.378Z,952.1
2023-07-23T09:02:00.348Z,952.3
2023-07-23T09:03:00.348Z,953.6
2023-07-23T09:04:00.358Z,952.3
2023-07-23T09:05:00.437Z,951.9
2023-07-23T09:06:00.355Z,952.3
2023-07-23T09:07:00.397Z,952.7
2023-07-23T09:08:00.366Z,952.3
2023-07-23T09:09:00.380Z,952.3
2023-07-23T09:10:00.364Z,952.3
2023-07-23T09:11:00.353Z,951.9
2023-07-23T09:12:00.386Z,952.3
2023-07-23T09:13:00.357Z,952.7
2023-07-23T09:14:00.361Z,952.7
2023-07-23T09:15:00.369Z,953.6
2023-07-23T09:16:01.495Z,952.7
2023-07-23T09:17:00.433Z,953
2023-07-23T09:18:00.431Z,953.6
2023-07-23T09:19:00.367Z,953.2
2023-07-23T09:20:00.404Z,953.2
2023-07-23T09:21:00.367Z,953
2023-07-23T09:22:00.367Z,952.3
2023-07-23T09:23:00.370Z,952.7
2023-07-23T09:24:00.372Z,952.7
2023-07-23T09:25:00.399Z,953.4
2023-07-23T09:26:00.396Z,953.8
2023-07-23T09:27:00.375Z,953.4
2023-07-23T09:28:00.383Z,953.6
2023-07-23T09:29:00.389Z,953.4
2023-07-23T09:30:00.398Z,952.7
2023-07-23T09:31:00.431Z,953
2023-07-23T09:32:00.383Z,953
2023-07-23T09:33:00.452Z,953.6
2023-07-23T09:34:00.400Z,953.2
2023-07-23T09:35:00.412Z,952.7
2023-07-23T09:36:00.393Z,953.2
2023-07-23T09:37:00.389Z,953.2
2023-07-23T09:38:00.408Z,954
2023-07-23T09:39:00.387Z,953.6
2023-07-23T09:40:00.395Z,953.2
2023-07-23T09:41:00.403Z,953.2
2023-07-23T09:42:00.391Z,953.6
2023-07-23T09:43:00.391Z,953.8
2023-07-23T09:44:00.419Z,952.5
2023-07-23T09:45:00.431Z,952.3
2023-07-23T09:46:00.400Z,951.4
2023-07-23T09:47:00.466Z,951.4
2023-07-23T09:48:13.993Z,950.8
2023-07-23T09:49:00.413Z,951.7
2023-07-23T09:50:00.427Z,952.1
2023-07-23T09:51:00.402Z,952.3
2023-07-23T09:52:00.429Z,952.1
2023-07-23T09:53:00.403Z,952.7
2023-07-23T09:54:00.405Z,953.2
2023-07-23T09:55:00.402Z,952.5
2023-07-23T09:56:00.411Z,952.3
2023-07-23T09:57:03.587Z,952.5
2023-07-23T09:58:00.408Z,952.3
2023-07-23T09:59:00.421Z,951.9
2023-07-23T10:00:00.407Z,951.9
2023-07-23T10:01:00.480Z,951
2023-07-23T10:02:00.455Z,952.3
2023-07-23T10:03:01.716Z,952.3
2023-07-23T10:04:00.423Z,950.6
2023-07-23T10:05:00.422Z,950.6
2023-07-23T10:06:00.431Z,951.2
2023-07-23T10:07:00.422Z,950.6
2023-07-23T10:08:00.425Z,950.6
2023-07-23T10:09:00.442Z,950.6
2023-07-23T10:10:00.439Z,950.6
2023-07-23T10:11:00.442Z,949.7
2023-07-23T10:12:00.449Z,950.1
2023-07-23T10:13:00.422Z,950.4
2023-07-23T10:14:00.429Z,950.6
2023-07-23T10:15:00.435Z,949.5
2023-07-23T10:16:00.428Z,949.7
2023-07-23T10:17:00.442Z,948
2023-07-23T10:18:00.561Z,948
2023-07-23T10:19:00.431Z,948.2
2023-07-23T10:20:00.442Z,948.4
2023-07-23T10:21:00.433Z,949.5
2023-07-23T10:22:00.449Z,948.6
2023-07-23T10:23:00.442Z,948.6
2023-07-23T10:24:00.444Z,948
2023-07-23T10:25:00.479Z,947.7
2023-07-23T10:26:00.434Z,948
2023-07-23T10:27:00.442Z,948
2023-07-23T10:28:00.439Z,947.7
2023-07-23T10:29:00.465Z,947.5
2023-07-23T10:30:00.446Z,947.5
2023-07-23T10:31:00.469Z,947.7
2023-07-23T10:32:00.442Z,948
2023-07-23T10:33:00.472Z,947.1
2023-07-23T10:34:00.449Z,947.5
2023-07-23T10:35:00.447Z,947.5
2023-07-23T10:36:00.444Z,948.2
2023-07-23T10:37:00.449Z,948.4
2023-07-23T10:38:00.453Z,947.1
2023-07-23T10:39:00.450Z,947.3
2023-07-23T10:40:00.519Z,946.9
2023-07-23T10:41:00.481Z,948.4
2023-07-23T10:42:00.450Z,947.1
2023-07-23T10:43:00.466Z,947.7
2023-07-23T10:44:00.462Z,948.4
2023-07-23T10:45:00.454Z,947.7
2023-07-23T10:46:00.494Z,948.4
2023-07-23T10:47:00.483Z,948.6
2023-07-23T10:48:00.507Z,948.4
2023-07-23T10:49:00.460Z,948.8
2023-07-23T10:50:00.498Z,948.4
2023-07-23T10:51:00.465Z,949
2023-07-23T10:52:00.461Z,947.5
2023-07-23T10:53:00.464Z,948
2023-07-23T10:54:00.464Z,947.1
2023-07-23T10:55:00.496Z,946.9
2023-07-23T10:56:00.486Z,948
2023-07-23T10:57:00.474Z,948.8
2023-07-23T10:58:00.477Z,948
2023-07-23T10:59:00.480Z,947.7
2023-07-23T11:00:00.488Z,948.4
2023-07-23T11:01:00.471Z,948
2023-07-23T11:02:00.526Z,948.2
2023-07-23T11:03:00.576Z,947.5
2023-07-23T11:04:00.536Z,948.4
2023-07-23T11:05:00.498Z,947.5
2023-07-23T11:06:00.478Z,947.1
2023-07-23T11:07:00.479Z,947.5
2023-07-23T11:08:00.477Z,947.1
2023-07-23T11:09:00.493Z,947.3
2023-07-23T11:10:00.485Z,948
2023-07-23T11:11:01.577Z,946.9
2023-07-23T11:12:00.526Z,947.1
2023-07-23T11:13:00.506Z,947.5
2023-07-23T11:14:00.501Z,948
2023-07-23T11:15:00.489Z,947.5
2023-07-23T11:16:00.584Z,946.9
2023-07-23T11:17:00.486Z,947.5
2023-07-23T11:18:05.884Z,946.2
2023-07-23T11:19:00.504Z,946.7
2023-07-23T11:20:00.510Z,946.2
2023-07-23T11:21:00.493Z,945.8
2023-07-23T11:22:00.501Z,947.1
2023-07-23T11:23:00.513Z,946
2023-07-23T11:24:00.513Z,944.9
2023-07-23T11:25:00.528Z,945.4
2023-07-23T11:26:00.525Z,946.2
2023-07-23T11:27:00.502Z,944.5
2023-07-23T11:28:00.501Z,944.7
2023-07-23T11:29:00.503Z,944.7
2023-07-23T11:30:00.514Z,945.4
2023-07-23T11:31:00.578Z,945.8
2023-07-23T11:32:00.506Z,944.7
2023-07-23T11:33:00.587Z,944.7
2023-07-23T11:34:00.520Z,944.5
2023-07-23T11:35:00.516Z,944
2023-07-23T11:36:00.523Z,944.9
2023-07-23T11:37:00.549Z,944
2023-07-23T11:38:00.525Z,944.3
2023-07-23T11:39:00.528Z,943.2
2023-07-23T11:40:00.519Z,943.6
2023-07-23T11:41:00.522Z,944
2023-07-23T11:42:00.626Z,943.6
2023-07-23T11:43:00.524Z,944.3
2023-07-23T11:44:00.521Z,944.5
2023-07-23T11:45:00.518Z,943.2
2023-07-23T11:46:00.554Z,943.6
2023-07-23T11:47:00.528Z,944
2023-07-23T11:48:00.584Z,944.3
2023-07-23T11:49:00.523Z,944.5
2023-07-23T11:50:00.537Z,944.9
2023-07-23T11:51:00.529Z,943.8
2023-07-23T11:52:00.564Z,944.7
2023-07-23T11:53:00.530Z,944.5
2023-07-23T11:54:00.528Z,943.6
2023-07-23T11:55:00.542Z,944.5
2023-07-23T11:56:00.540Z,943.6
2023-07-23T11:57:00.530Z,944
2023-07-23T11:58:00.537Z,943.8
2023-07-23T11:59:00.536Z,943.4
2023-07-23T12:00:00.560Z,944
2023-07-23T12:01:00.567Z,944
2023-07-23T12:02:00.611Z,943.4
2023-07-23T12:03:00.634Z,943.8
2023-07-23T12:04:00.634Z,944
2023-07-23T12:05:00.570Z,944
2023-07-23T12:06:01.804Z,943.4
2023-07-23T12:07:00.540Z,943.2
2023-07-23T12:08:00.551Z,943.6
2023-07-23T12:09:00.548Z,943.2
2023-07-23T12:10:00.571Z,942.7
2023-07-23T12:11:00.547Z,943.2
2023-07-23T12:12:00.576Z,943.2
2023-07-23T12:13:00.548Z,943.4
2023-07-23T12:14:00.546Z,943.6
2023-07-23T12:15:00.557Z,944
2023-07-23T12:16:00.627Z,943.6
2023-07-23T12:17:00.574Z,944
2023-07-23T12:18:00.558Z,943.6
2023-07-23T12:19:00.568Z,943.6
2023-07-23T12:20:00.570Z,944.5
2023-07-23T12:21:00.560Z,944
2023-07-23T12:22:00.568Z,943.8
2023-07-23T12:23:00.558Z,943.6
2023-07-23T12:24:00.564Z,944.5
2023-07-23T12:25:00.591Z,944
2023-07-23T12:26:00.564Z,944.5
2023-07-23T12:27:00.570Z,944.9
2023-07-23T12:28:00.580Z,945.1
2023-07-23T12:29:00.566Z,945.1
2023-07-23T12:30:00.577Z,944.9
2023-07-23T12:31:00.621Z,945.4
2023-07-23T12:32:00.591Z,944.5
2023-07-23T12:33:00.576Z,944.5
2023-07-23T12:34:00.592Z,944.7
2023-07-23T12:35:00.584Z,945.1
2023-07-23T12:36:00.605Z,945.6
2023-07-23T12:37:00.603Z,945.1
2023-07-23T12:38:00.583Z,945.4
2023-07-23T12:39:00.585Z,946.2
2023-07-23T12:40:00.577Z,946.7
2023-07-23T12:41:00.584Z,945.4
2023-07-23T12:42:00.589Z,945.6
2023-07-23T12:43:00.577Z,945.8
2023-07-23T12:44:00.587Z,946.2
2023-07-23T12:45:00.601Z,945.8
2023-07-23T12:46:00.666Z,945.8
2023-07-23T12:47:00.593Z,945.8
2023-07-23T12:48:00.634Z,946.4
2023-07-23T12:49:00.593Z,946
2023-07-23T12:50:00.627Z,946.2
2023-07-23T12:51:00.603Z,945.6
2023-07-23T12:52:00.592Z,945.8
2023-07-23T12:53:00.591Z,946.4
2023-07-23T12:54:00.599Z,945.8
2023-07-23T12:55:00.653Z,945.8
2023-07-23T12:56:00.600Z,945.8
2023-07-23T12:57:00.605Z,946.4
2023-07-23T12:58:00.603Z,945.8